sensor_id;sensor_type;location;lat;lon;timestamp;pressure;altitude;pressure_sealevel;temperature;humidity
35443;BME280;21561;55.654;37.592;2023-04-07T00:00:33;100036.44;;;4.86;42.07
35443;BME280;21561;55.654;37.592;2023-04-07T00:03:00;100037.13;;;4.77;42.12
35443;BME280;21561;55.654;37.592;2023-04-07T00:05:27;100043.97;;;4.78;42.28
35443;BME280;21561;55.654;37.592;2023-04-07T00:07:54;100044.06;;;4.82;42.29
35443;BME280;21561;55.654;37.592;2023-04-07T00:10:23;100042.38;;;4.84;42.09
35443;BME280;21561;55.654;37.592;2023-04-07T00:12:50;100044.19;;;4.88;42.12
35443;BME280;21561;55.654;37.592;2023-04-07T00:15:16;100049.25;;;4.83;42.35
35443;BME280;21561;55.654;37.592;2023-04-07T00:17:43;100049.84;;;4.73;42.36
35443;BME280;21561;55.654;37.592;2023-04-07T00:20:10;100048.91;;;4.69;42.45
35443;BME280;21561;55.654;37.592;2023-04-07T00:22:37;100052.19;;;4.62;42.86
35443;BME280;21561;55.654;37.592;2023-04-07T00:25:04;100054.66;;;4.59;42.73
35443;BME280;21561;55.654;37.592;2023-04-07T00:27:30;100060.66;;;4.58;42.71
35443;BME280;21561;55.654;37.592;2023-04-07T00:29:57;100069.34;;;4.63;42.89
35443;BME280;21561;55.654;37.592;2023-04-07T00:32:24;100069.44;;;4.68;42.90
35443;BME280;21561;55.654;37.592;2023-04-07T00:34:50;100070.28;;;4.67;42.69
35443;BME280;21561;55.654;37.592;2023-04-07T00:37:17;100074.53;;;4.66;42.77
35443;BME280;21561;55.654;37.592;2023-04-07T00:39:45;100075.41;;;4.65;42.68
35443;BME280;21561;55.654;37.592;2023-04-07T00:42:12;100080.56;;;4.67;43.11
35443;BME280;21561;55.654;37.592;2023-04-07T00:44:38;100083.16;;;4.68;43.21
35443;BME280;21561;55.654;37.592;2023-04-07T00:47:05;100088.28;;;4.68;43.04
35443;BME280;21561;55.654;37.592;2023-04-07T00:49:31;100077.31;;;4.74;43.01
35443;BME280;21561;55.654;37.592;2023-04-07T00:51:58;100083.16;;;4.68;43.15
35443;BME280;21561;55.654;37.592;2023-04-07T00:54:25;100083.94;;;4.64;43.27
35443;BME280;21561;55.654;37.592;2023-04-07T00:56:52;100092.31;;;4.57;43.41
35443;BME280;21561;55.654;37.592;2023-04-07T00:59:19;100093.69;;;4.43;43.44
35443;BME280;21561;55.654;37.592;2023-04-07T01:01:50;100095.22;;;4.36;43.66
35443;BME280;21561;55.654;37.592;2023-04-07T01:06:58;100106.88;;;4.23;43.64
35443;BME280;21561;55.654;37.592;2023-04-07T01:09:38;100106.69;;;4.15;43.73
35443;BME280;21561;55.654;37.592;2023-04-07T01:12:09;100116.03;;;4.12;43.74
35443;BME280;21561;55.654;37.592;2023-04-07T01:14:44;100125.34;;;4.08;44.49
35443;BME280;21561;55.654;37.592;2023-04-07T01:17:11;100117.50;;;4.04;43.97
35443;BME280;21561;55.654;37.592;2023-04-07T01:19:41;100119.16;;;4.01;43.93
35443;BME280;21561;55.654;37.592;2023-04-07T01:22:13;100125.06;;;3.97;44.23
35443;BME280;21561;55.654;37.592;2023-04-07T01:30:07;100132.00;;;3.70;44.18
35443;BME280;21561;55.654;37.592;2023-04-07T01:32:35;100131.91;;;3.67;44.48
35443;BME280;21561;55.654;37.592;2023-04-07T01:35:03;100133.47;;;3.61;44.29
35443;BME280;21561;55.654;37.592;2023-04-07T01:37:31;100146.94;;;3.54;44.66
35443;BME280;21561;55.654;37.592;2023-04-07T01:39:58;100142.63;;;3.52;44.47
35443;BME280;21561;55.654;37.592;2023-04-07T01:42:25;100148.50;;;3.49;44.69
35443;BME280;21561;55.654;37.592;2023-04-07T01:44:52;100143.22;;;3.43;44.74
35443;BME280;21561;55.654;37.592;2023-04-07T01:47:19;100149.09;;;3.40;44.67
35443;BME280;21561;55.654;37.592;2023-04-07T01:49:46;100154.97;;;3.36;44.96
35443;BME280;21561;55.654;37.592;2023-04-07T01:52:13;100154.88;;;3.33;44.58
35443;BME280;21561;55.654;37.592;2023-04-07T01:54:40;100158.22;;;3.31;44.85
35443;BME280;21561;55.654;37.592;2023-04-07T01:57:08;100156.38;;;3.27;44.84
35443;BME280;21561;55.654;37.592;2023-04-07T01:59:34;100164.91;;;3.25;45.24
35443;BME280;21561;55.654;37.592;2023-04-07T02:02:01;100165.66;;;3.23;44.88
35443;BME280;21561;55.654;37.592;2023-04-07T02:06:55;100179.91;;;3.13;45.16
35443;BME280;21561;55.654;37.592;2023-04-07T02:09:24;100178.09;;;3.09;45.34
35443;BME280;21561;55.654;37.592;2023-04-07T02:11:52;100183.09;;;3.06;45.56
35443;BME280;21561;55.654;37.592;2023-04-07T02:14:21;100182.19;;;3.04;45.23
35443;BME280;21561;55.654;37.592;2023-04-07T02:16:49;100183.84;;;3.02;45.37
35443;BME280;21561;55.654;37.592;2023-04-07T02:19:17;100186.31;;;2.99;45.10
35443;BME280;21561;55.654;37.592;2023-04-07T02:21:44;100196.44;;;2.96;45.64
35443;BME280;21561;55.654;37.592;2023-04-07T02:24:11;100194.63;;;2.92;45.31
35443;BME280;21561;55.654;37.592;2023-04-07T02:26:38;100195.41;;;2.89;45.62
35443;BME280;21561;55.654;37.592;2023-04-07T02:29:05;100207.25;;;2.85;45.74
35443;BME280;21561;55.654;37.592;2023-04-07T02:31:32;100210.56;;;2.83;46.01
35443;BME280;21561;55.654;37.592;2023-04-07T02:33:58;100210.44;;;2.78;46.00
35443;BME280;21561;55.654;37.592;2023-04-07T02:36:25;100215.50;;;2.77;46.50
35443;BME280;21561;55.654;37.592;2023-04-07T02:38:52;100212.94;;;2.77;45.90
35443;BME280;21561;55.654;37.592;2023-04-07T02:41:19;100212.09;;;2.78;45.81
35443;BME280;21561;55.654;37.592;2023-04-07T02:43:46;100218.00;;;2.75;46.18
35443;BME280;21561;55.654;37.592;2023-04-07T02:46:13;100211.13;;;2.74;45.85
35443;BME280;21561;55.654;37.592;2023-04-07T02:48:41;100223.84;;;2.71;46.19
35443;BME280;21561;55.654;37.592;2023-04-07T02:51:08;100231.44;;;2.68;46.43
35443;BME280;21561;55.654;37.592;2023-04-07T02:53:35;100233.06;;;2.66;46.26
35443;BME280;21561;55.654;37.592;2023-04-07T02:56:01;100242.41;;;2.64;46.20
35443;BME280;21561;55.654;37.592;2023-04-07T02:58:28;100241.44;;;2.62;46.60
35443;BME280;21561;55.654;37.592;2023-04-07T03:00:55;100243.22;;;2.63;46.42
35443;BME280;21561;55.654;37.592;2023-04-07T03:03:21;100241.44;;;2.62;46.66
35443;BME280;21561;55.654;37.592;2023-04-07T03:05:48;100253.47;;;2.63;47.01
35443;BME280;21561;55.654;37.592;2023-04-07T03:08:15;100246.13;;;2.74;46.44
35443;BME280;21561;55.654;37.592;2023-04-07T03:10:41;100250.91;;;2.89;46.20
35443;BME280;21561;55.654;37.592;2023-04-07T03:13:09;100249.38;;;2.94;46.06
35443;BME280;21561;55.654;37.592;2023-04-07T03:15:37;100256.25;;;2.95;46.29
35443;BME280;21561;55.654;37.592;2023-04-07T03:18:04;100254.34;;;2.89;46.36
35443;BME280;21561;55.654;37.592;2023-04-07T03:20:31;100266.28;;;2.89;46.84
35443;BME280;21561;55.654;37.592;2023-04-07T03:22:57;100265.59;;;2.94;46.50
35443;BME280;21561;55.654;37.592;2023-04-07T03:25:24;100268.34;;;2.99;46.45
35443;BME280;21561;55.654;37.592;2023-04-07T03:27:52;100270.97;;;3.00;46.24
35443;BME280;21561;55.654;37.592;2023-04-07T03:30:19;100271.94;;;3.04;46.74
35443;BME280;21561;55.654;37.592;2023-04-07T03:32:46;100276.94;;;3.01;46.49
35443;BME280;21561;55.654;37.592;2023-04-07T03:35:12;100285.47;;;3.00;46.91
35443;BME280;21561;55.654;37.592;2023-04-07T03:37:39;100295.81;;;3.03;47.42
35443;BME280;21561;55.654;37.592;2023-04-07T03:40:06;100302.75;;;3.05;47.39
35443;BME280;21561;55.654;37.592;2023-04-07T03:42:33;100330.28;;;3.11;50.07
35443;BME280;21561;55.654;37.592;2023-04-07T03:44:59;100320.22;;;3.17;47.99
35443;BME280;21561;55.654;37.592;2023-04-07T03:47:26;100317.59;;;3.16;47.34
35443;BME280;21561;55.654;37.592;2023-04-07T03:49:53;100322.59;;;3.11;47.60
35443;BME280;21561;55.654;37.592;2023-04-07T03:52:19;100318.22;;;3.09;47.36
35443;BME280;21561;55.654;37.592;2023-04-07T03:54:46;100326.81;;;3.09;47.43
35443;BME280;21561;55.654;37.592;2023-04-07T03:57:12;100324.88;;;3.02;47.92
35443;BME280;21561;55.654;37.592;2023-04-07T03:59:39;100326.50;;;3.00;48.02
35443;BME280;21561;55.654;37.592;2023-04-07T04:02:06;100333.47;;;3.04;47.64
35443;BME280;21561;55.654;37.592;2023-04-07T04:04:33;100340.56;;;3.11;47.81
35443;BME280;21561;55.654;37.592;2023-04-07T04:07:00;100334.59;;;3.12;47.88
35443;BME280;21561;55.654;37.592;2023-04-07T04:09:27;100341.53;;;3.15;47.94
35443;BME280;21561;55.654;37.592;2023-04-07T04:11:53;100343.19;;;3.13;47.58
35443;BME280;21561;55.654;37.592;2023-04-07T04:14:20;100344.03;;;3.13;47.81
35443;BME280;21561;55.654;37.592;2023-04-07T04:16:47;100341.53;;;3.15;47.73
35443;BME280;21561;55.654;37.592;2023-04-07T04:19:13;100348.38;;;3.16;48.02
35443;BME280;21561;55.654;37.592;2023-04-07T04:21:40;100345.69;;;3.11;48.01
35443;BME280;21561;55.654;37.592;2023-04-07T04:24:06;100358.38;;;3.08;48.05
35443;BME280;21561;55.654;37.592;2023-04-07T04:26:33;100359.44;;;3.13;48.15
35443;BME280;21561;55.654;37.592;2023-04-07T04:29:00;100364.81;;;3.21;48.16
35443;BME280;21561;55.654;37.592;2023-04-07T04:31:28;100367.38;;;3.21;48.22
35443;BME280;21561;55.654;37.592;2023-04-07T04:33:55;100365.69;;;3.21;48.29
35443;BME280;21561;55.654;37.592;2023-04-07T04:36:21;100369.19;;;3.23;48.59
35443;BME280;21561;55.654;37.592;2023-04-07T04:38:48;100368.75;;;3.37;47.92
35443;BME280;21561;55.654;37.592;2023-04-07T04:41:15;100380.06;;;3.42;48.88
35443;BME280;21561;55.654;37.592;2023-04-07T04:43:41;100386.00;;;3.41;48.58
35443;BME280;21561;55.654;37.592;2023-04-07T04:46:08;100383.53;;;3.44;48.25
35443;BME280;21561;55.654;37.592;2023-04-07T04:48:34;100386.97;;;3.44;48.53
35443;BME280;21561;55.654;37.592;2023-04-07T04:51:01;100382.69;;;3.43;48.29
35443;BME280;21561;55.654;37.592;2023-04-07T04:53:28;100387.75;;;3.42;48.18
35443;BME280;21561;55.654;37.592;2023-04-07T04:55:55;100391.03;;;3.38;48.92
35443;BME280;21561;55.654;37.592;2023-04-07T04:58:21;100397.09;;;3.40;48.51
35443;BME280;21561;55.654;37.592;2023-04-07T05:00:48;100400.63;;;3.43;48.36
35443;BME280;21561;55.654;37.592;2023-04-07T05:03:15;100402.34;;;3.43;48.63
35443;BME280;21561;55.654;37.592;2023-04-07T05:05:42;100406.63;;;3.44;48.32
35443;BME280;21561;55.654;37.592;2023-04-07T05:08:12;100405.09;;;3.49;48.24
35443;BME280;21561;55.654;37.592;2023-04-07T05:10:41;100410.47;;;3.55;48.24
35443;BME280;21561;55.654;37.592;2023-04-07T05:13:07;100409.22;;;3.70;48.30
35443;BME280;21561;55.654;37.592;2023-04-07T05:15:34;100415.63;;;3.82;48.48
35443;BME280;21561;55.654;37.592;2023-04-07T05:18:04;100422.59;;;3.87;49.28
35443;BME280;21561;55.654;37.592;2023-04-07T05:20:30;100421.22;;;3.98;48.18
35443;BME280;21561;55.654;37.592;2023-04-07T05:22:57;100415.72;;;4.13;48.07
35443;BME280;21561;55.654;37.592;2023-04-07T05:25:23;100416.78;;;4.19;48.02
35443;BME280;21561;55.654;37.592;2023-04-07T05:27:50;100423.50;;;4.16;48.19
35443;BME280;21561;55.654;37.592;2023-04-07T05:30:17;100423.31;;;4.10;48.11
35443;BME280;21561;55.654;37.592;2023-04-07T05:32:43;100427.56;;;4.08;48.34
35443;BME280;21561;55.654;37.592;2023-04-07T05:35:10;100429.50;;;4.15;48.22
35443;BME280;21561;55.654;37.592;2023-04-07T05:37:37;100428.75;;;4.19;48.22
35443;BME280;21561;55.654;37.592;2023-04-07T05:40:03;100430.69;;;4.26;48.32
35443;BME280;21561;55.654;37.592;2023-04-07T05:42:30;100431.59;;;4.28;48.30
35443;BME280;21561;55.654;37.592;2023-04-07T05:44:57;100434.16;;;4.28;48.39
35443;BME280;21561;55.654;37.592;2023-04-07T05:47:24;100430.84;;;4.32;48.47
35443;BME280;21561;55.654;37.592;2023-04-07T05:49:51;100444.97;;;4.45;48.31
35443;BME280;21561;55.654;37.592;2023-04-07T05:52:18;100444.28;;;4.51;48.36
35443;BME280;21561;55.654;37.592;2023-04-07T05:54:44;100439.53;;;4.63;48.28
35443;BME280;21561;55.654;37.592;2023-04-07T05:57:11;100436.47;;;4.76;48.02
35443;BME280;21561;55.654;37.592;2023-04-07T05:59:38;100445.09;;;4.78;48.05
35443;BME280;21561;55.654;37.592;2023-04-07T06:02:04;100440.16;;;4.85;48.25
35443;BME280;21561;55.654;37.592;2023-04-07T06:04:31;100452.34;;;4.92;48.18
35443;BME280;21561;55.654;37.592;2023-04-07T06:06:59;100443.78;;;4.93;48.17
35443;BME280;21561;55.654;37.592;2023-04-07T06:09:26;100442.22;;;4.98;48.10
35443;BME280;21561;55.654;37.592;2023-04-07T06:11:53;100443.97;;;4.99;48.06
35443;BME280;21561;55.654;37.592;2023-04-07T06:14:19;100450.75;;;4.97;48.14
35443;BME280;21561;55.654;37.592;2023-04-07T06:16:46;100451.56;;;4.94;48.26
35443;BME280;21561;55.654;37.592;2023-04-07T06:19:13;100452.34;;;4.92;48.21
35443;BME280;21561;55.654;37.592;2023-04-07T06:21:39;100457.56;;;4.95;48.31
35443;BME280;21561;55.654;37.592;2023-04-07T06:24:06;100463.75;;;5.02;48.12
35443;BME280;21561;55.654;37.592;2023-04-07T06:26:33;100465.69;;;5.09;48.13
35443;BME280;21561;55.654;37.592;2023-04-07T06:28:59;100457.16;;;5.11;48.22
35443;BME280;21561;55.654;37.592;2023-04-07T06:31:26;100465.16;;;5.21;47.95
35443;BME280;21561;55.654;37.592;2023-04-07T06:33:53;100461.16;;;5.32;47.94
35443;BME280;21561;55.654;37.592;2023-04-07T06:36:20;100455.59;;;5.48;47.67
35443;BME280;21561;55.654;37.592;2023-04-07T06:38:47;100455.13;;;5.63;47.52
35443;BME280;21561;55.654;37.592;2023-04-07T06:41:13;100453.47;;;5.65;47.32
35443;BME280;21561;55.654;37.592;2023-04-07T06:43:42;100458.81;;;5.73;47.46
35443;BME280;21561;55.654;37.592;2023-04-07T06:46:09;100460.63;;;5.77;47.52
35443;BME280;21561;55.654;37.592;2023-04-07T06:48:36;100462.38;;;5.78;47.44
35443;BME280;21561;55.654;37.592;2023-04-07T06:51:02;100462.47;;;5.83;47.54
35443;BME280;21561;55.654;37.592;2023-04-07T06:53:29;100465.19;;;5.87;47.56
35443;BME280;21561;55.654;37.592;2023-04-07T06:56:06;100465.44;;;5.97;47.42
35443;BME280;21561;55.654;37.592;2023-04-07T06:58:33;100461.31;;;6.03;47.40
35443;BME280;21561;55.654;37.592;2023-04-07T07:01:00;100462.25;;;6.07;47.34
35443;BME280;21561;55.654;37.592;2023-04-07T07:03:27;100460.69;;;6.12;47.12
35443;BME280;21561;55.654;37.592;2023-04-07T07:05:54;100465.16;;;6.21;47.23
35443;BME280;21561;55.654;37.592;2023-04-07T07:08:24;100469.66;;;6.29;47.10
35443;BME280;21561;55.654;37.592;2023-04-07T07:10:51;100456.19;;;6.41;46.77
35443;BME280;21561;55.654;37.592;2023-04-07T07:13:18;100454.63;;;6.49;46.65
35443;BME280;21561;55.654;37.592;2023-04-07T07:15:45;100442.69;;;6.53;46.76
35443;BME280;21561;55.654;37.592;2023-04-07T07:18:12;100453.00;;;6.53;46.65
35443;BME280;21561;55.654;37.592;2023-04-07T07:20:38;100455.88;;;6.67;46.55
35443;BME280;21561;55.654;37.592;2023-04-07T07:23:05;100446.69;;;6.80;46.41
35443;BME280;21561;55.654;37.592;2023-04-07T07:25:32;100443.41;;;6.87;46.27
35443;BME280;21561;55.654;37.592;2023-04-07T07:27:58;100429.75;;;6.93;45.92
35443;BME280;21561;55.654;37.592;2023-04-07T07:30:25;100436.81;;;7.01;45.92
35443;BME280;21561;55.654;37.592;2023-04-07T07:32:52;100433.50;;;7.08;45.90
35443;BME280;21561;55.654;37.592;2023-04-07T07:35:19;100428.34;;;7.08;45.82
35443;BME280;21561;55.654;37.592;2023-04-07T07:37:46;100422.47;;;7.14;44.78
35443;BME280;21561;55.654;37.592;2023-04-07T07:40:13;100423.50;;;7.24;45.61
35443;BME280;21561;55.654;37.592;2023-04-07T07:42:40;100431.38;;;7.32;45.59
35443;BME280;21561;55.654;37.592;2023-04-07T07:45:07;100427.22;;;7.38;45.75
35443;BME280;21561;55.654;37.592;2023-04-07T07:47:33;100434.22;;;7.45;45.64
35443;BME280;21561;55.654;37.592;2023-04-07T07:50:03;100424.06;;;7.55;45.56
35443;BME280;21561;55.654;37.592;2023-04-07T07:52:30;100429.41;;;7.65;45.51
35443;BME280;21561;55.654;37.592;2023-04-07T07:54:56;100427.88;;;7.75;45.48
35443;BME280;21561;55.654;37.592;2023-04-07T07:57:23;100423.72;;;7.87;45.33
35443;BME280;21561;55.654;37.592;2023-04-07T07:59:50;100429.94;;;7.98;45.18
35443;BME280;21561;55.654;37.592;2023-04-07T08:02:16;100411.16;;;8.08;44.64
35443;BME280;21561;55.654;37.592;2023-04-07T08:04:43;100375.94;;;8.16;41.25
35443;BME280;21561;55.654;37.592;2023-04-07T08:07:10;100382.09;;;8.25;43.85
35443;BME280;21561;55.654;37.592;2023-04-07T08:09:37;100392.44;;;8.25;44.59
35443;BME280;21561;55.654;37.592;2023-04-07T08:12:03;100395.88;;;8.25;44.39
35443;BME280;21561;55.654;37.592;2023-04-07T08:14:30;100394.25;;;8.32;44.46
35443;BME280;21561;55.654;37.592;2023-04-07T08:16:57;100395.22;;;8.41;44.52
35443;BME280;21561;55.654;37.592;2023-04-07T08:19:23;100373.03;;;8.53;43.68
35443;BME280;21561;55.654;37.592;2023-04-07T08:21:50;100380.81;;;8.57;44.01
35443;BME280;21561;55.654;37.592;2023-04-07T08:24:17;100377.44;;;8.62;43.82
35443;BME280;21561;55.654;37.592;2023-04-07T08:26:43;100366.22;;;8.61;43.62
35443;BME280;21561;55.654;37.592;2023-04-07T08:29:11;100334.31;;;8.60;42.92
35443;BME280;21561;55.654;37.592;2023-04-07T08:31:37;100351.59;;;8.65;43.69
35443;BME280;21561;55.654;37.592;2023-04-07T08:34:04;100343.00;;;8.66;43.54
35443;BME280;21561;55.654;37.592;2023-04-07T08:36:30;100342.22;;;8.73;43.29
35443;BME280;21561;55.654;37.592;2023-04-07T08:38:57;100333.72;;;8.83;42.97
35443;BME280;21561;55.654;37.592;2023-04-07T08:41:28;100335.53;;;8.92;42.80
35443;BME280;21561;55.654;37.592;2023-04-07T08:43:56;100333.91;;;9.02;42.71
35443;BME280;21561;55.654;37.592;2023-04-07T08:46:23;100283.06;;;9.10;39.80
35443;BME280;21561;55.654;37.592;2023-04-07T08:48:51;100297.84;;;9.22;41.84
35443;BME280;21561;55.654;37.592;2023-04-07T08:51:22;100274.63;;;9.32;41.44
35443;BME280;21561;55.654;37.592;2023-04-07T08:53:52;100289.31;;;9.36;41.58
35443;BME280;21561;55.654;37.592;2023-04-07T08:56:19;100279.88;;;9.42;41.55
35443;BME280;21561;55.654;37.592;2023-04-07T08:58:47;100285.94;;;9.45;41.37
35443;BME280;21561;55.654;37.592;2023-04-07T09:01:14;100288.56;;;9.50;41.68
35443;BME280;21561;55.654;37.592;2023-04-07T09:03:42;100271.31;;;9.52;41.72
35443;BME280;21561;55.654;37.592;2023-04-07T09:06:10;100285.19;;;9.60;41.52
35443;BME280;21561;55.654;37.592;2023-04-07T09:08:37;100282.66;;;9.69;41.55
35443;BME280;21561;55.654;37.592;2023-04-07T09:11:03;100278.38;;;9.78;41.34
35443;BME280;21561;55.654;37.592;2023-04-07T09:13:30;100274.13;;;9.86;41.30
35443;BME280;21561;55.654;37.592;2023-04-07T09:15:58;100209.31;;;9.86;37.52
35443;BME280;21561;55.654;37.592;2023-04-07T09:18:27;100237.00;;;9.93;41.07
35443;BME280;21561;55.654;37.592;2023-04-07T09:21:11;100250.84;;;10.01;40.65
35443;BME280;21561;55.654;37.592;2023-04-07T09:23:41;100244.84;;;10.10;40.86
35443;BME280;21561;55.654;37.592;2023-04-07T09:28:44;100219.88;;;10.29;39.62
35443;BME280;21561;55.654;37.592;2023-04-07T09:31:10;100230.31;;;10.38;40.66
35443;BME280;21561;55.654;37.592;2023-04-07T09:33:37;100240.69;;;10.44;40.24
35443;BME280;21561;55.654;37.592;2023-04-07T09:36:04;100183.63;;;10.47;36.62
35443;BME280;21561;55.654;37.592;2023-04-07T09:38:32;100156.81;;;10.53;38.50
35443;BME280;21561;55.654;37.592;2023-04-07T09:41:06;100117.91;;;10.52;36.26
35443;BME280;21561;55.654;37.592;2023-04-07T09:43:37;100159.41;;;10.58;38.73
35443;BME280;21561;55.654;37.592;2023-04-07T09:46:08;100136.06;;;10.58;36.22
35443;BME280;21561;55.654;37.592;2023-04-07T09:48:35;100140.38;;;10.62;37.17
35443;BME280;21561;55.654;37.592;2023-04-07T09:51:14;100164.63;;;10.73;39.00
35443;BME280;21561;55.654;37.592;2023-04-07T09:53:48;100169.81;;;10.87;39.14
35443;BME280;21561;55.654;37.592;2023-04-07T09:56:18;100121.34;;;10.97;37.14
35443;BME280;21561;55.654;37.592;2023-04-07T09:58:45;100088.44;;;11.05;36.24
35443;BME280;21561;55.654;37.592;2023-04-07T10:01:13;100097.94;;;11.12;36.79
35443;BME280;21561;55.654;37.592;2023-04-07T10:03:39;100071.97;;;11.15;34.58
35443;BME280;21561;55.654;37.592;2023-04-07T10:06:06;100060.69;;;11.19;35.12
35443;BME280;21561;55.654;37.592;2023-04-07T10:08:34;100092.72;;;11.26;37.18
35443;BME280;21561;55.654;37.592;2023-04-07T10:11:02;100095.28;;;11.34;37.10
35443;BME280;21561;55.654;37.592;2023-04-07T10:13:29;100097.84;;;11.44;37.32
35443;BME280;21561;55.654;37.592;2023-04-07T10:15:57;100072.72;;;11.54;36.89
35443;BME280;21561;55.654;37.592;2023-04-07T10:18:25;100031.06;;;11.67;35.26
35443;BME280;21561;55.654;37.592;2023-04-07T10:20:53;100070.84;;;11.81;36.23
35443;BME280;21561;55.654;37.592;2023-04-07T10:23:24;100048.28;;;11.92;35.80
35443;BME280;21561;55.654;37.592;2023-04-07T10:25:51;100051.50;;;12.28;35.75
35443;BME280;21561;55.654;37.592;2023-04-07T10:28:20;100036.78;;;13.15;34.81
35443;BME280;21561;55.654;37.592;2023-04-07T10:30:49;100035.41;;;14.20;34.47
35443;BME280;21561;55.654;37.592;2023-04-07T10:33:16;99985.03;;;15.12;33.24
35443;BME280;21561;55.654;37.592;2023-04-07T10:36:03;99965.94;;;15.88;32.63
35443;BME280;21561;55.654;37.592;2023-04-07T10:38:31;99935.84;;;16.73;32.24
35443;BME280;21561;55.654;37.592;2023-04-07T10:40:58;99895.38;;;17.43;30.76
35443;BME280;21561;55.654;37.592;2023-04-07T10:43:37;99837.47;;;18.02;30.18
35443;BME280;21561;55.654;37.592;2023-04-07T10:46:10;99816.16;;;18.59;30.14
35443;BME280;21561;55.654;37.592;2023-04-07T10:48:36;99766.19;;;19.06;28.66
35443;BME280;21561;55.654;37.592;2023-04-07T10:53:30;99691.09;;;19.19;29.31
35443;BME280;21561;55.654;37.592;2023-04-07T10:55:57;99669.88;;;19.24;28.08
35443;BME280;21561;55.654;37.592;2023-04-07T11:03:34;99570.22;;;19.76;27.05
35443;BME280;21561;55.654;37.592;2023-04-07T11:08:35;99515.72;;;19.78;26.31
35443;BME280;21561;55.654;37.592;2023-04-07T11:11:02;99486.97;;;19.74;26.32
35443;BME280;21561;55.654;37.592;2023-04-07T11:16:07;99465.03;;;19.16;26.42
35443;BME280;21561;55.654;37.592;2023-04-07T11:18:35;99487.03;;;18.95;27.58
35443;BME280;21561;55.654;37.592;2023-04-07T11:21:02;99475.25;;;19.03;26.30
35443;BME280;21561;55.654;37.592;2023-04-07T11:23:37;99432.69;;;19.14;25.69
35443;BME280;21561;55.654;37.592;2023-04-07T11:26:04;99448.84;;;19.06;26.26
35443;BME280;21561;55.654;37.592;2023-04-07T11:28:31;99435.47;;;19.11;25.39
35443;BME280;21561;55.654;37.592;2023-04-07T11:30:58;99426.66;;;19.12;25.83
35443;BME280;21561;55.654;37.592;2023-04-07T11:33:26;99391.19;;;19.21;24.66
35443;BME280;21561;55.654;37.592;2023-04-07T11:35:54;99379.47;;;19.09;25.21
35443;BME280;21561;55.654;37.592;2023-04-07T11:38:22;99384.78;;;18.88;25.78
35443;BME280;21561;55.654;37.592;2023-04-07T11:40:49;99367.81;;;18.75;25.91
35443;BME280;21561;55.654;37.592;2023-04-07T11:43:16;99288.31;;;18.32;24.27
35443;BME280;21561;55.654;37.592;2023-04-07T11:45:43;99362.13;;;18.05;25.49
35443;BME280;21561;55.654;37.592;2023-04-07T11:48:26;99344.00;;;17.99;24.81
35443;BME280;21561;55.654;37.592;2023-04-07T11:50:53;99351.47;;;17.88;25.32
35443;BME280;21561;55.654;37.592;2023-04-07T11:53:30;99327.34;;;18.00;24.65
35443;BME280;21561;55.654;37.592;2023-04-07T11:56:11;99319.69;;;18.35;24.44
35443;BME280;21561;55.654;37.592;2023-04-07T11:58:48;99302.13;;;18.75;24.63
35443;BME280;21561;55.654;37.592;2023-04-07T12:01:15;99293.13;;;19.00;24.21
35443;BME280;21561;55.654;37.592;2023-04-07T12:03:58;99297.28;;;19.23;24.91
35443;BME280;21561;55.654;37.592;2023-04-07T12:06:28;99220.22;;;19.56;20.27
35443;BME280;21561;55.654;37.592;2023-04-07T12:08:56;99252.53;;;19.94;24.25
35443;BME280;21561;55.654;37.592;2023-04-07T12:11:23;99220.28;;;20.07;23.38
35443;BME280;21561;55.654;37.592;2023-04-07T12:13:50;99235.25;;;20.22;23.33
35443;BME280;21561;55.654;37.592;2023-04-07T12:16:17;99222.72;;;20.59;23.13
35443;BME280;21561;55.654;37.592;2023-04-07T12:18:44;99217.19;;;21.11;22.66
35443;BME280;21561;55.654;37.592;2023-04-07T12:21:11;99173.06;;;21.60;21.92
35443;BME280;21561;55.654;37.592;2023-04-07T12:23:37;99152.34;;;21.82;22.66
35443;BME280;21561;55.654;37.592;2023-04-07T12:26:04;99158.63;;;21.94;22.85
35443;BME280;21561;55.654;37.592;2023-04-07T12:28:31;99144.38;;;22.11;22.31
35443;BME280;21561;55.654;37.592;2023-04-07T12:30:57;99100.38;;;22.24;21.50
35443;BME280;21561;55.654;37.592;2023-04-07T12:33:24;99095.22;;;22.50;21.53
35443;BME280;21561;55.654;37.592;2023-04-07T12:35:51;99042.75;;;22.84;20.61
35443;BME280;21561;55.654;37.592;2023-04-07T12:38:17;99026.97;;;23.10;20.75
35443;BME280;21561;55.654;37.592;2023-04-07T12:40:44;98972.97;;;23.12;19.72
35443;BME280;21561;55.654;37.592;2023-04-07T12:43:11;98980.63;;;22.77;20.31
35443;BME280;21561;55.654;37.592;2023-04-07T12:45:38;98967.66;;;22.34;20.59
35443;BME280;21561;55.654;37.592;2023-04-07T12:48:04;98944.72;;;22.07;20.79
35443;BME280;21561;55.654;37.592;2023-04-07T12:50:31;98957.47;;;22.15;20.92
35443;BME280;21561;55.654;37.592;2023-04-07T12:52:58;98952.81;;;22.18;20.30
35443;BME280;21561;55.654;37.592;2023-04-07T12:55:25;98935.97;;;21.79;20.53
35443;BME280;21561;55.654;37.592;2023-04-07T12:57:51;98922.13;;;21.20;20.70
35443;BME280;21561;55.654;37.592;2023-04-07T13:00:18;98972.13;;;20.48;21.86
35443;BME280;21561;55.654;37.592;2023-04-07T13:02:45;98961.66;;;20.16;20.91
35443;BME280;21561;55.654;37.592;2023-04-07T13:05:11;98951.19;;;19.84;21.07
35443;BME280;21561;55.654;37.592;2023-04-07T13:07:38;98971.91;;;19.74;21.25
35443;BME280;21561;55.654;37.592;2023-04-07T13:10:05;98949.19;;;19.72;21.47
35443;BME280;21561;55.654;37.592;2023-04-07T13:12:33;98963.41;;;19.85;20.86
35443;BME280;21561;55.654;37.592;2023-04-07T13:15:00;98958.09;;;20.17;20.34
35443;BME280;21561;55.654;37.592;2023-04-07T13:17:27;98941.63;;;20.58;20.39